createdAt,value
2019-03-22T00:00:04.180Z,5.98
2019-03-22T00:04:14.196Z,5.98
2019-03-22T00:08:22.998Z,5.64
2019-03-22T00:12:31.606Z,5.56
2019-03-22T00:16:39.849Z,5.81
2019-03-22T00:20:49.487Z,5.68
2019-03-22T00:24:58.339Z,5.95
2019-03-22T00:29:06.560Z,6.08
2019-03-22T00:33:15.749Z,6.12
2019-03-22T00:37:23.916Z,6.21
2019-03-22T00:41:32.339Z,6.29
2019-03-22T00:45:40.754Z,6.53
2019-03-22T00:49:48.986Z,6.70
2019-03-22T00:53:57.703Z,6.81
2019-03-22T00:58:06.259Z,6.66
2019-03-22T01:02:14.759Z,6.48
2019-03-22T01:06:23.688Z,6.52
2019-03-22T01:10:32.941Z,6.39
2019-03-22T01:14:41.775Z,6.55
2019-03-22T01:18:50.938Z,6.63
2019-03-22T01:22:59.662Z,6.77
2019-03-22T01:27:07.968Z,6.85
2019-03-22T01:31:16.924Z,6.90
2019-03-22T01:35:25.340Z,6.96
2019-03-22T01:39:33.648Z,6.92
2019-03-22T01:43:42.813Z,6.94
2019-03-22T01:47:51.024Z,6.84
2019-03-22T01:51:59.838Z,6.92
2019-03-22T01:56:08.594Z,6.82
2019-03-22T02:00:17.773Z,6.92
2019-03-22T02:04:26.555Z,6.96
2019-03-22T02:08:35.079Z,6.86
2019-03-22T02:12:43.400Z,6.58
2019-03-22T02:16:51.841Z,6.65
2019-03-22T02:21:00.781Z,6.59
2019-03-22T02:25:09.610Z,6.59
2019-03-22T02:29:18.330Z,6.39
2019-03-22T02:33:27.529Z,6.33
2019-03-22T02:37:35.892Z,6.49
2019-03-22T02:41:45.157Z,6.43
2019-03-22T02:45:53.272Z,6.47
2019-03-22T02:50:11.691Z,6.50
2019-03-22T02:54:12.069Z,6.46
2019-03-22T02:58:21.443Z,6.40
2019-03-22T03:02:30.850Z,6.33
2019-03-22T03:06:39.722Z,6.40
2019-03-22T03:10:47.998Z,6.49
2019-03-22T03:14:56.642Z,6.54
2019-03-22T03:19:05.263Z,6.49
2019-03-22T03:23:13.592Z,6.35
2019-03-22T03:27:22.465Z,6.31
2019-03-22T03:31:31.172Z,6.32
2019-03-22T03:35:39.594Z,6.17
2019-03-22T03:39:48.366Z,6.23
2019-03-22T03:43:57.341Z,6.28
2019-03-22T03:48:07.597Z,6.39
2019-03-22T03:52:16.140Z,6.35
2019-03-22T03:56:24.383Z,6.27
2019-03-22T04:00:33.407Z,6.20
2019-03-22T04:04:41.542Z,6.24
2019-03-22T04:08:49.764Z,6.32
2019-03-22T04:12:58.870Z,6.35
2019-03-22T04:17:07.414Z,6.16
2019-03-22T04:21:15.733Z,6.07
2019-03-22T04:25:24.510Z,5.89
2019-03-22T04:29:32.680Z,6.12
2019-03-22T04:33:41.108Z,6.25
2019-03-22T04:37:49.942Z,6.26
2019-03-22T04:41:58.167Z,6.39
2019-03-22T04:46:07.993Z,6.47
2019-03-22T04:50:17.348Z,6.44
2019-03-22T04:54:27.980Z,6.60
2019-03-22T04:58:38.324Z,6.68
2019-03-22T05:02:48.564Z,6.85
2019-03-22T05:06:58.521Z,6.99
2019-03-22T05:11:09.639Z,7.18
2019-03-22T05:15:20.198Z,7.43
2019-03-22T05:19:31.497Z,7.56
2019-03-22T05:23:41.041Z,7.66
2019-03-22T05:27:51.377Z,8.02
2019-03-22T05:32:06.112Z,8.25
2019-03-22T05:36:14.310Z,8.50
2019-03-22T05:40:22.635Z,8.70
2019-03-22T05:44:31.360Z,9.03
2019-03-22T05:48:39.781Z,9.93
2019-03-22T05:52:48.626Z,9.64
2019-03-22T05:56:56.942Z,10.09
2019-03-22T06:01:06.087Z,9.97
2019-03-22T06:05:14.900Z,9.88
2019-03-22T06:09:23.147Z,10.05
2019-03-22T06:13:32.072Z,10.81
2019-03-22T06:17:51.150Z,10.78
2019-03-22T06:21:51.275Z,10.53
2019-03-22T06:26:00.111Z,10.48
2019-03-22T06:30:10.899Z,10.61
2019-03-22T06:34:19.306Z,10.65
2019-03-22T06:38:28.166Z,10.61
2019-03-22T06:42:36.766Z,11.15
2019-03-22T06:46:45.203Z,11.17
2019-03-22T06:50:53.526Z,11.37
2019-03-22T06:55:03.073Z,11.50
2019-03-22T06:59:11.809Z,11.84
2019-03-22T07:03:20.618Z,12.08
2019-03-22T07:07:28.934Z,12.68
2019-03-22T07:11:37.479Z,13.52
2019-03-22T07:15:47.054Z,13.47
2019-03-22T07:19:55.361Z,13.28
2019-03-22T07:24:04.408Z,12.93
2019-03-22T07:28:13.237Z,14.19
2019-03-22T07:32:21.562Z,14.52
2019-03-22T07:36:30.510Z,14.37
2019-03-22T07:40:38.718Z,14.76
2019-03-22T07:44:47.032Z,15.27
2019-03-22T07:48:56.184Z,15.68
2019-03-22T07:53:04.491Z,16.00
2019-03-22T07:57:13.528Z,16.01
2019-03-22T08:01:22.374Z,17.10
2019-03-22T08:05:31.107Z,17.00
2019-03-22T08:09:39.814Z,17.29
2019-03-22T08:13:48.458Z,17.30
2019-03-22T08:17:57.244Z,16.62
2019-03-22T08:22:06.123Z,16.70
2019-03-22T08:26:14.894Z,16.43
2019-03-22T08:30:23.192Z,17.18
2019-03-22T08:34:31.758Z,16.42
2019-03-22T08:38:40.154Z,17.02
2019-03-22T08:42:48.673Z,16.38
2019-03-22T08:46:57.539Z,17.71
2019-03-22T08:51:05.923Z,18.04
2019-03-22T08:55:14.535Z,19.08
2019-03-22T08:59:22.772Z,19.08
2019-03-22T09:03:31.112Z,19.06
2019-03-22T09:07:39.998Z,18.07
2019-03-22T09:11:48.752Z,18.93
2019-03-22T09:15:56.983Z,17.74
2019-03-22T09:20:06.317Z,16.69
2019-03-22T09:24:15.046Z,16.40
2019-03-22T09:28:23.298Z,16.60
2019-03-22T09:32:31.708Z,17.20
2019-03-22T09:36:40.167Z,16.91
2019-03-22T09:40:48.395Z,16.45
2019-03-22T09:44:56.972Z,16.53
2019-03-22T09:49:05.204Z,17.61
2019-03-22T09:53:13.714Z,17.34
2019-03-22T09:57:22.489Z,18.41
2019-03-22T10:01:30.682Z,19.47
2019-03-22T10:05:39.413Z,20.04
2019-03-22T10:09:47.650Z,20.56
2019-03-22T10:13:56.561Z,20.42
2019-03-22T10:18:05.828Z,18.97
2019-03-22T10:22:13.942Z,19.74
2019-03-22T10:26:22.697Z,19.56
2019-03-22T10:30:31.518Z,20.96
2019-03-22T10:34:39.984Z,21.25
2019-03-22T10:38:50.411Z,20.25
2019-03-22T10:42:58.624Z,18.45
2019-03-22T10:47:06.831Z,18.34
2019-03-22T10:51:15.655Z,19.86
2019-03-22T10:55:30.348Z,20.64
2019-03-22T10:59:34.140Z,19.44
2019-03-22T11:03:42.931Z,19.49
2019-03-22T11:07:51.299Z,20.04
2019-03-22T11:12:00.120Z,20.35
2019-03-22T11:16:08.765Z,21.14
2019-03-22T11:20:17.370Z,21.12
2019-03-22T11:24:25.716Z,19.85
2019-03-22T11:28:34.950Z,20.85
2019-03-22T11:32:43.291Z,20.39
2019-03-22T11:36:51.937Z,21.46
2019-03-22T11:41:00.158Z,21.13
2019-03-22T11:45:11.099Z,21.06
2019-03-22T11:49:19.540Z,19.95
2019-03-22T11:53:27.755Z,20.33
2019-03-22T11:57:38.316Z,19.99
2019-03-22T12:01:46.950Z,21.08
2019-03-22T12:05:55.280Z,21.58
2019-03-22T12:10:04.374Z,20.29
2019-03-22T12:14:12.855Z,20.31
2019-03-22T12:18:21.168Z,20.18
2019-03-22T12:22:29.896Z,19.87
2019-03-22T12:26:38.427Z,20.69
2019-03-22T12:30:46.642Z,21.17
2019-03-22T12:34:55.173Z,20.10
2019-03-22T12:39:04.183Z,19.71
2019-03-22T12:43:12.949Z,19.41
2019-03-22T12:47:22.081Z,20.03
2019-03-22T12:51:30.401Z,19.56
2019-03-22T12:55:38.829Z,20.37
2019-03-22T12:59:47.354Z,20.27
2019-03-22T13:03:55.576Z,19.94
2019-03-22T13:08:04.601Z,18.88
2019-03-22T13:12:13.441Z,19.95
2019-03-22T13:16:21.779Z,19.67
2019-03-22T13:20:30.692Z,20.08
2019-03-22T13:24:38.920Z,21.17
2019-03-22T13:28:47.865Z,21.18
2019-03-22T13:32:56.791Z,20.04
2019-03-22T13:37:05.020Z,21.79
2019-03-22T13:41:13.552Z,21.43
2019-03-22T13:45:22.378Z,19.51
2019-03-22T13:49:30.699Z,19.94
2019-03-22T13:53:39.345Z,20.38
2019-03-22T13:57:47.549Z,19.87
2019-03-22T14:01:56.403Z,18.65
2019-03-22T14:06:05.733Z,20.01
2019-03-22T14:10:22.232Z,19.56
2019-03-22T14:14:31.083Z,17.63
2019-03-22T14:18:39.817Z,16.08
2019-03-22T14:22:48.237Z,15.39
2019-03-22T14:26:56.673Z,14.98
2019-03-22T14:31:05.997Z,14.48
2019-03-22T14:35:14.329Z,14.18
2019-03-22T14:39:22.771Z,14.10
2019-03-22T14:43:31.601Z,13.91
2019-03-22T14:47:39.712Z,13.68
2019-03-22T14:51:48.446Z,13.51
2019-03-22T14:55:57.071Z,13.24
2019-03-22T15:00:05.705Z,13.36
2019-03-22T15:04:14.634Z,13.30
2019-03-22T15:08:23.138Z,13.04
2019-03-22T15:12:31.700Z,12.91
2019-03-22T15:17:17.529Z,12.62
2019-03-22T15:21:44.772Z,12.82
2019-03-22T15:26:11.224Z,12.56
2019-03-22T15:30:56.604Z,12.68
2019-03-22T15:35:42.438Z,12.48
2019-03-22T15:40:03.916Z,12.44
2019-03-22T15:44:12.521Z,12.31
2019-03-22T15:48:21.393Z,12.33
2019-03-22T15:52:30.113Z,12.17
2019-03-22T15:56:38.421Z,12.08
2019-03-22T16:00:47.173Z,12.23
2019-03-22T16:04:55.401Z,11.78
2019-03-22T16:09:05.173Z,11.83
2019-03-22T16:13:13.680Z,11.81
2019-03-22T16:17:21.895Z,11.67
2019-03-22T16:21:30.835Z,11.55
2019-03-22T16:25:39.666Z,11.38
2019-03-22T16:29:47.879Z,11.34
2019-03-22T16:33:57.105Z,11.25
2019-03-22T16:38:05.639Z,11.39
2019-03-22T16:42:13.990Z,11.17
2019-03-22T16:46:22.920Z,11.36
2019-03-22T16:50:31.843Z,11.14
2019-03-22T16:54:40.703Z,10.58
2019-03-22T16:58:49.718Z,11.08
2019-03-22T17:02:57.950Z,10.58
2019-03-22T17:07:07.195Z,10.54
2019-03-22T17:11:15.421Z,10.86
2019-03-22T17:15:24.155Z,10.50
2019-03-22T17:19:32.726Z,10.51
2019-03-22T17:23:40.888Z,10.47
2019-03-22T17:27:49.735Z,10.23
2019-03-22T17:31:58.651Z,10.12
2019-03-22T17:36:07.068Z,9.68
2019-03-22T17:40:15.813Z,9.85
2019-03-22T17:44:24.365Z,9.76
2019-03-22T17:48:32.471Z,9.98
2019-03-22T17:52:41.076Z,9.94
2019-03-22T17:56:49.437Z,10.00
2019-03-22T18:00:58.415Z,9.98
2019-03-22T18:05:08.394Z,9.27
2019-03-22T18:09:16.625Z,9.32
2019-03-22T18:13:25.581Z,9.43
2019-03-22T18:17:34.096Z,8.94
2019-03-22T18:21:42.337Z,9.25
2019-03-22T18:25:51.067Z,9.37
2019-03-22T18:29:59.368Z,9.40
2019-03-22T18:34:08.538Z,9.10
2019-03-22T18:38:17.324Z,9.11
2019-03-22T18:42:25.576Z,9.42
2019-03-22T18:46:34.290Z,9.53
2019-03-22T18:50:43.132Z,9.47
2019-03-22T18:54:51.956Z,9.43
2019-03-22T18:59:00.397Z,9.40
2019-03-22T19:03:08.623Z,9.36
2019-03-22T19:07:17.232Z,9.09
2019-03-22T19:11:25.947Z,9.02
2019-03-22T19:15:34.303Z,8.94
2019-03-22T19:19:42.714Z,9.14
2019-03-22T19:23:50.934Z,9.25
2019-03-22T19:27:59.559Z,9.02
2019-03-22T19:32:13.423Z,8.94
2019-03-22T19:36:18.053Z,9.07
2019-03-22T19:40:26.636Z,9.08
2019-03-22T19:44:35.413Z,9.24
2019-03-22T19:48:43.732Z,9.17
2019-03-22T19:52:52.261Z,9.15
2019-03-22T19:57:01.165Z,8.87
2019-03-22T20:01:09.615Z,8.97
2019-03-22T20:05:32.135Z,8.82
2019-03-22T20:09:40.553Z,8.55
2019-03-22T20:13:48.787Z,8.55
2019-03-22T20:17:57.330Z,8.70
2019-03-22T20:22:06.084Z,8.57
2019-03-22T20:26:14.406Z,8.84
2019-03-22T20:30:23.541Z,8.97
2019-03-22T20:34:31.837Z,9.19
2019-03-22T20:38:41.103Z,9.29
2019-03-22T20:42:50.064Z,9.69
2019-03-22T20:46:58.264Z,9.72
2019-03-22T20:51:06.992Z,9.73
2019-03-22T20:55:17.209Z,9.74
2019-03-22T20:59:25.373Z,9.50
2019-03-22T21:03:34.093Z,9.36
2019-03-22T21:07:42.421Z,9.22
2019-03-22T21:11:51.194Z,9.42
2019-03-22T21:15:59.698Z,9.52
2019-03-22T21:20:08.650Z,9.61
2019-03-22T21:24:17.654Z,9.56
2019-03-22T21:28:26.574Z,9.57
2019-03-22T21:32:44.740Z,9.54
2019-03-22T21:36:45.175Z,9.48
2019-03-22T21:40:53.925Z,9.50
2019-03-22T21:45:02.125Z,9.55
2019-03-22T21:49:11.064Z,9.59
2019-03-22T21:53:19.411Z,9.60
2019-03-22T21:57:27.835Z,9.72
2019-03-22T22:01:37.848Z,9.74
2019-03-22T22:05:48.090Z,9.70
2019-03-22T22:09:56.768Z,9.62
2019-03-22T22:14:05.594Z,9.43
2019-03-22T22:18:14.132Z,9.46
2019-03-22T22:22:22.555Z,9.41
2019-03-22T22:26:31.503Z,9.46
2019-03-22T22:30:39.711Z,9.39
2019-03-22T22:34:48.043Z,9.37
2019-03-22T22:38:56.881Z,9.38
2019-03-22T22:43:05.125Z,9.30
2019-03-22T22:47:13.710Z,9.33
2019-03-22T22:51:22.283Z,9.41
2019-03-22T22:55:30.457Z,9.33
2019-03-22T22:59:39.748Z,9.28
2019-03-22T23:03:47.820Z,9.09
2019-03-22T23:07:56.049Z,8.91
2019-03-22T23:12:04.767Z,9.10
2019-03-22T23:16:13.304Z,9.22
2019-03-22T23:20:22.178Z,9.23
2019-03-22T23:24:30.560Z,9.15
2019-03-22T23:28:38.996Z,9.29
2019-03-22T23:32:47.924Z,9.27
2019-03-22T23:36:56.752Z,9.10
2019-03-22T23:41:05.331Z,9.06
2019-03-22T23:45:14.632Z,9.05
2019-03-22T23:49:23.349Z,9.10
2019-03-22T23:53:31.761Z,9.09
2019-03-22T23:57:40.016Z,9.10
